< < Back
Terminal Aerodrome Forecast


Current Version              Previous Versions:   1  2  3  4  5  6  7  8  9  

Terminal Aerodrome Forecast

806
FTUS42 KTAE 050538
TAFDHN
TAF
KDHN 050538Z 0506/0606 00000KT P6SM SCT250
     FM051400 30004KT P6SM SCT040
     FM051800 07006KT P6SM VCTS SCT040CB
     FM060100 00000KT P6SM BKN250=



Latest METAR

976
SAUS70 KWBC 050500 RRA
MTRDHN
METAR KDHN 050453Z AUTO 00000KT 10SM CLR 26/22 A3002 RMK AO2 SLP157
T02560217


USA.gov is the U.S. government's official web portal to all federal, state and local government web resources and services.